createdAt,value
2018-12-13T00:02:26.286Z,0.80
2018-12-13T00:04:54.816Z,0.90
2018-12-13T00:07:23.296Z,0.90
2018-12-13T00:09:51.950Z,0.80
2018-12-13T00:12:20.517Z,0.80
2018-12-13T00:14:49.112Z,0.80
2018-12-13T00:17:17.630Z,0.80
2018-12-13T00:19:46.177Z,0.80
2018-12-13T00:22:14.674Z,0.80
2018-12-13T00:24:43.241Z,0.80
2018-12-13T00:27:11.735Z,0.80
2018-12-13T00:29:40.321Z,0.80
2018-12-13T00:32:08.912Z,0.80
2018-12-13T00:34:37.494Z,0.80
2018-12-13T00:37:06.069Z,0.70
2018-12-13T00:39:34.555Z,0.70
2018-12-13T00:42:03.228Z,0.70
2018-12-13T00:44:31.821Z,0.70
2018-12-13T00:47:00.409Z,0.70
2018-12-13T00:49:28.990Z,0.70
2018-12-13T00:51:57.511Z,0.70
2018-12-13T00:54:26.141Z,0.70
2018-12-13T00:56:54.619Z,0.70
2018-12-13T00:59:23.228Z,0.70
2018-12-13T01:01:51.946Z,0.60
2018-12-13T01:04:20.814Z,0.50
2018-12-13T01:06:49.327Z,0.50
2018-12-13T01:09:18.008Z,0.50
2018-12-13T01:11:46.568Z,0.50
2018-12-13T01:14:15.141Z,0.50
2018-12-13T01:16:43.626Z,0.50
2018-12-13T01:19:12.231Z,0.50
2018-12-13T01:21:40.723Z,0.50
2018-12-13T01:24:09.243Z,0.50
2018-12-13T01:26:37.753Z,0.50
2018-12-13T01:29:06.307Z,0.40
2018-12-13T01:31:34.894Z,0.40
2018-12-13T01:34:03.416Z,0.40
2018-12-13T01:36:31.901Z,0.40
2018-12-13T01:39:00.619Z,0.40
2018-12-13T01:41:29.268Z,0.40
2018-12-13T01:43:57.760Z,0.40
2018-12-13T01:46:26.448Z,0.30
2018-12-13T01:48:55.008Z,0.30
2018-12-13T01:51:30.170Z,0.30
2018-12-13T01:53:58.740Z,0.30
2018-12-13T01:56:27.311Z,0.30
2018-12-13T01:58:55.796Z,0.30
2018-12-13T02:01:24.309Z,0.30
2018-12-13T02:03:52.893Z,0.30
2018-12-13T02:06:21.397Z,0.30
2018-12-13T02:08:50.053Z,0.30
2018-12-13T02:11:18.670Z,0.30
2018-12-13T02:13:47.194Z,0.30
2018-12-13T02:16:15.702Z,0.30
2018-12-13T02:18:44.485Z,0.20
2018-12-13T02:21:13.271Z,0.20
2018-12-13T02:23:41.763Z,0.20
2018-12-13T02:26:10.345Z,0.20
2018-12-13T02:28:38.867Z,0.20
2018-12-13T02:31:07.637Z,0.30
2018-12-13T02:33:42.564Z,0.20
2018-12-13T02:36:11.057Z,0.20
2018-12-13T02:38:39.804Z,0.20
2018-12-13T02:41:08.421Z,0.20
2018-12-13T02:43:36.945Z,0.30
2018-12-13T02:46:05.570Z,0.20
2018-12-13T02:48:34.179Z,0.30
2018-12-13T02:51:02.771Z,0.20
2018-12-13T02:53:31.277Z,0.20
2018-12-13T02:55:59.806Z,0.20
2018-12-13T02:58:28.308Z,0.20
2018-12-13T03:00:56.916Z,0.30
2018-12-13T03:03:25.416Z,0.30
2018-12-13T03:05:54.070Z,0.30
2018-12-13T03:08:22.556Z,0.30
2018-12-13T03:10:51.047Z,0.30
2018-12-13T03:13:19.563Z,0.30
2018-12-13T03:15:48.097Z,0.30
2018-12-13T03:18:16.687Z,0.30
2018-12-13T03:20:45.168Z,0.30
2018-12-13T03:23:13.646Z,0.20
2018-12-13T03:25:42.230Z,0.20
2018-12-13T03:28:10.698Z,0.30
2018-12-13T03:30:39.304Z,0.30
2018-12-13T03:33:07.906Z,0.30
2018-12-13T03:35:36.467Z,0.30
2018-12-13T03:38:05.058Z,0.20
2018-12-13T03:40:33.601Z,0.20
2018-12-13T03:43:02.216Z,0.20
2018-12-13T03:45:30.704Z,0.30
2018-12-13T03:47:59.293Z,0.20
2018-12-13T03:50:27.761Z,0.30
2018-12-13T03:52:56.358Z,0.30
2018-12-13T03:55:24.968Z,0.30
2018-12-13T03:57:53.476Z,0.30
2018-12-13T04:00:22.216Z,0.30
2018-12-13T04:02:50.740Z,0.30
2018-12-13T04:05:19.280Z,0.40
2018-12-13T04:07:47.856Z,0.40
2018-12-13T04:10:16.450Z,0.40
2018-12-13T04:12:44.954Z,0.40
2018-12-13T04:15:13.442Z,0.30
2018-12-13T04:17:42.206Z,0.30
2018-12-13T04:20:10.720Z,0.40
2018-12-13T04:22:39.241Z,0.40
2018-12-13T04:25:07.857Z,0.40
2018-12-13T04:27:36.344Z,0.40
2018-12-13T04:30:05.541Z,0.40
2018-12-13T04:32:34.191Z,0.40
2018-12-13T04:35:02.812Z,0.40
2018-12-13T04:37:35.273Z,0.40
2018-12-13T04:40:01.847Z,0.40
2018-12-13T04:42:30.337Z,0.30
2018-12-13T04:44:59.067Z,0.30
2018-12-13T04:47:27.669Z,0.30
2018-12-13T04:49:56.267Z,0.30
2018-12-13T04:52:24.799Z,0.30
2018-12-13T04:54:53.381Z,0.30
2018-12-13T04:57:21.841Z,0.30
2018-12-13T04:59:50.399Z,0.30
2018-12-13T05:02:19.089Z,0.30
2018-12-13T05:04:47.578Z,0.30
2018-12-13T05:07:16.078Z,0.30
2018-12-13T05:09:44.842Z,0.30
2018-12-13T05:12:13.403Z,0.30
2018-12-13T05:14:41.995Z,0.40
2018-12-13T05:17:10.595Z,0.40
2018-12-13T05:19:39.145Z,0.30
2018-12-13T05:22:07.631Z,0.40
2018-12-13T05:24:36.186Z,0.30
2018-12-13T05:27:04.806Z,0.40
2018-12-13T05:29:33.331Z,0.30
2018-12-13T05:32:01.828Z,0.40
2018-12-13T05:34:30.327Z,0.40
2018-12-13T05:36:58.849Z,0.40
2018-12-13T05:39:27.353Z,0.40
2018-12-13T05:41:55.853Z,0.40
2018-12-13T05:44:24.542Z,0.40
2018-12-13T05:46:53.413Z,0.40
2018-12-13T05:49:21.975Z,0.40
2018-12-13T05:51:50.515Z,0.30
2018-12-13T05:54:19.035Z,0.30
2018-12-13T05:56:47.862Z,0.30
2018-12-13T05:59:16.359Z,0.30
2018-12-13T06:01:44.863Z,0.30
2018-12-13T06:04:13.384Z,0.30
2018-12-13T06:06:41.988Z,0.20
2018-12-13T06:09:10.564Z,0.20
2018-12-13T06:11:39.160Z,0.20
2018-12-13T06:14:07.666Z,0.20
2018-12-13T06:16:36.170Z,0.20
2018-12-13T06:19:04.785Z,0.20
2018-12-13T06:21:36.909Z,0.10
2018-12-13T06:24:03.924Z,0.20
2018-12-13T06:26:32.503Z,0.10
2018-12-13T06:29:01.200Z,0.10
2018-12-13T06:31:29.795Z,0.10
2018-12-13T06:33:58.283Z,0.10
2018-12-13T06:36:26.955Z,0.10
2018-12-13T06:38:55.558Z,0.10
2018-12-13T06:41:24.079Z,0.10
2018-12-13T06:43:52.795Z,0.10
2018-12-13T06:46:21.283Z,0.10
2018-12-13T06:48:49.880Z,0.10
2018-12-13T06:51:18.365Z,0.00
2018-12-13T06:53:46.948Z,0.00
2018-12-13T06:56:15.441Z,0.00
2018-12-13T06:58:44.227Z,0.00
2018-12-13T07:01:12.903Z,0.00
2018-12-13T07:03:41.493Z,-0.10
2018-12-13T07:06:10.075Z,0.00
2018-12-13T07:08:38.619Z,-0.10
2018-12-13T07:11:07.322Z,-0.10
2018-12-13T07:13:35.876Z,-0.10
2018-12-13T07:16:11.920Z,-0.10
2018-12-13T07:18:40.964Z,-0.10
2018-12-13T07:21:09.486Z,-0.10
2018-12-13T07:23:38.084Z,-0.10
2018-12-13T07:26:06.740Z,-0.10
2018-12-13T07:28:35.305Z,-0.10
2018-12-13T07:31:04.027Z,-0.10
2018-12-13T07:33:32.516Z,-0.10
2018-12-13T07:36:01.078Z,-0.10
2018-12-13T07:38:29.664Z,-0.10
2018-12-13T07:40:58.325Z,-0.10
2018-12-13T07:43:26.815Z,-0.10
2018-12-13T07:45:55.314Z,-0.10
2018-12-13T07:48:25.030Z,-0.10
2018-12-13T07:50:53.595Z,0.00
2018-12-13T07:53:22.150Z,-0.10
2018-12-13T07:55:50.667Z,0.00
2018-12-13T07:58:19.260Z,0.00
2018-12-13T08:00:47.770Z,0.00
2018-12-13T08:03:16.278Z,0.00
2018-12-13T08:05:44.816Z,0.10
2018-12-13T08:08:13.407Z,0.10
2018-12-13T08:10:41.916Z,0.10
2018-12-13T08:13:10.574Z,0.20
2018-12-13T08:15:39.084Z,0.20
2018-12-13T08:18:07.974Z,0.30
2018-12-13T08:20:36.630Z,0.30
2018-12-13T08:23:05.136Z,0.30
2018-12-13T08:25:33.756Z,0.40
2018-12-13T08:28:02.255Z,0.40
2018-12-13T08:30:30.802Z,0.50
2018-12-13T08:32:59.478Z,0.50
2018-12-13T08:35:28.478Z,0.50
2018-12-13T08:37:57.357Z,0.50
2018-12-13T08:40:25.862Z,0.60
2018-12-13T08:42:54.865Z,0.60
2018-12-13T08:45:24.412Z,0.70
2018-12-13T08:47:53.030Z,0.70
2018-12-13T08:50:21.558Z,0.70
2018-12-13T08:52:50.048Z,0.70
2018-12-13T08:55:18.567Z,0.70
2018-12-13T08:57:47.057Z,0.80
2018-12-13T09:00:15.601Z,0.80
2018-12-13T09:02:44.175Z,0.80
2018-12-13T09:05:12.774Z,0.90
2018-12-13T09:07:41.273Z,0.90
2018-12-13T09:10:10.488Z,0.90
2018-12-13T09:12:39.243Z,1.00
2018-12-13T09:15:07.992Z,1.00
2018-12-13T09:17:36.487Z,1.00
2018-12-13T09:20:05.836Z,1.10
2018-12-13T09:22:34.324Z,1.10
2018-12-13T09:25:02.827Z,1.10
2018-12-13T09:27:31.682Z,1.10
2018-12-13T09:30:00.226Z,1.20
2018-12-13T09:32:28.750Z,1.20
2018-12-13T09:34:57.228Z,1.30
2018-12-13T09:37:25.782Z,1.30
2018-12-13T09:39:54.314Z,1.40
2018-12-13T09:42:22.876Z,1.40
2018-12-13T09:44:51.384Z,1.40
2018-12-13T09:47:19.910Z,1.40
2018-12-13T09:49:48.401Z,1.50
2018-12-13T09:52:16.988Z,1.50
2018-12-13T09:54:45.572Z,1.50
2018-12-13T09:57:14.097Z,1.50
2018-12-13T09:59:42.702Z,1.50
2018-12-13T10:02:11.347Z,1.60
2018-12-13T10:04:39.867Z,1.60
2018-12-13T10:07:08.357Z,1.60
2018-12-13T10:09:36.925Z,1.60
2018-12-13T10:12:05.443Z,1.70
2018-12-13T10:14:34.121Z,1.70
2018-12-13T10:17:02.791Z,1.80
2018-12-13T10:19:31.353Z,1.80
2018-12-13T10:22:00.155Z,1.80
2018-12-13T10:24:28.703Z,1.90
2018-12-13T10:26:57.333Z,2.00
2018-12-13T10:29:25.919Z,2.00
2018-12-13T10:31:54.794Z,2.00
2018-12-13T10:34:23.290Z,2.10
2018-12-13T10:36:51.811Z,2.10
2018-12-13T10:39:20.308Z,2.10
2018-12-13T10:41:48.807Z,2.10
2018-12-13T10:44:19.466Z,2.20
2018-12-13T10:46:48.036Z,2.20
2018-12-13T10:49:16.533Z,2.30
2018-12-13T10:51:45.031Z,2.30
2018-12-13T10:54:13.503Z,2.40
2018-12-13T10:56:42.105Z,2.40
2018-12-13T10:59:10.616Z,2.40
2018-12-13T11:01:50.014Z,2.40
2018-12-13T11:04:26.937Z,2.50
2018-12-13T11:07:02.946Z,2.50
2018-12-13T11:09:31.735Z,2.70
2018-12-13T11:12:00.236Z,2.70
2018-12-13T11:14:28.724Z,2.70
2018-12-13T11:16:57.265Z,2.80
2018-12-13T11:19:25.840Z,2.70
2018-12-13T11:21:56.093Z,2.80
2018-12-13T11:24:24.877Z,3.00
2018-12-13T11:26:55.617Z,3.00
2018-12-13T11:30:39.089Z,3.00
2018-12-13T11:33:07.617Z,3.00
2018-12-13T11:35:36.322Z,3.20
2018-12-13T11:38:05.143Z,3.30
2018-12-13T11:40:33.703Z,3.30
2018-12-13T11:43:02.384Z,3.20
2018-12-13T11:45:31.113Z,3.20
2018-12-13T11:47:59.761Z,3.30
2018-12-13T11:50:28.260Z,3.30
2018-12-13T11:52:56.984Z,3.30
2018-12-13T11:55:34.211Z,3.30
2018-12-13T11:58:04.253Z,3.30
2018-12-13T12:00:32.932Z,3.30
2018-12-13T12:03:01.453Z,3.30
2018-12-13T12:05:30.189Z,3.10
2018-12-13T12:07:58.805Z,3.10
2018-12-13T12:10:27.490Z,3.20
2018-12-13T12:12:56.022Z,3.20
2018-12-13T12:15:24.740Z,3.20
2018-12-13T12:17:53.321Z,3.10
2018-12-13T12:20:21.912Z,3.10
2018-12-13T12:22:50.681Z,3.20
2018-12-13T12:25:19.467Z,3.20
2018-12-13T12:27:58.433Z,3.30
2018-12-13T12:30:27.112Z,3.30
2018-12-13T12:32:55.629Z,3.30
2018-12-13T12:35:24.402Z,3.30
2018-12-13T12:37:53.074Z,3.30
2018-12-13T12:40:21.591Z,3.20
2018-12-13T12:42:50.233Z,3.30
2018-12-13T12:45:19.015Z,3.40
2018-12-13T12:47:47.681Z,3.50
2018-12-13T12:50:16.291Z,3.60
2018-12-13T12:52:44.850Z,3.60
2018-12-13T12:55:13.556Z,3.60
2018-12-13T12:57:42.161Z,3.70
2018-12-13T13:00:11.134Z,3.60
2018-12-13T13:02:39.746Z,3.70
2018-12-13T13:05:08.718Z,3.60
2018-12-13T13:07:37.389Z,3.60
2018-12-13T13:10:07.149Z,3.50
2018-12-13T13:12:35.713Z,3.50
2018-12-13T13:15:04.691Z,3.60
2018-12-13T13:17:33.371Z,3.70
2018-12-13T13:20:01.938Z,3.80
2018-12-13T13:22:30.449Z,3.80
2018-12-13T13:24:59.059Z,3.90
2018-12-13T13:27:27.599Z,3.90
2018-12-13T13:29:56.217Z,3.90
2018-12-13T13:32:24.889Z,4.00
2018-12-13T13:34:53.986Z,3.90
2018-12-13T13:37:22.530Z,3.90
2018-12-13T13:39:51.299Z,3.80
2018-12-13T13:42:20.039Z,3.70
2018-12-13T13:44:50.783Z,3.70
2018-12-13T13:47:19.369Z,3.50
2018-12-13T13:49:48.252Z,3.30
2018-12-13T13:52:17.036Z,3.40
2018-12-13T13:54:45.537Z,3.30
2018-12-13T13:57:15.163Z,3.20
2018-12-13T13:59:43.773Z,3.10
2018-12-13T14:02:12.443Z,3.10
2018-12-13T14:04:41.295Z,3.00
2018-12-13T14:07:09.852Z,2.90
2018-12-13T14:09:38.675Z,2.90
2018-12-13T14:12:07.538Z,2.80
2018-12-13T14:14:36.324Z,2.80
2018-12-13T14:17:05.123Z,2.80
2018-12-13T14:19:33.697Z,2.80
2018-12-13T14:22:02.377Z,2.80
2018-12-13T14:24:32.347Z,2.80
2018-12-13T14:27:01.058Z,2.70
2018-12-13T14:29:29.684Z,2.60
2018-12-13T14:31:58.387Z,2.60
2018-12-13T14:34:27.051Z,2.60
2018-12-13T14:36:55.707Z,2.60
2018-12-13T14:39:24.390Z,2.50
2018-12-13T14:41:53.235Z,2.50
2018-12-13T14:44:21.775Z,2.50
2018-12-13T14:46:50.505Z,2.50
2018-12-13T14:49:19.203Z,2.40
2018-12-13T14:51:47.953Z,2.40
2018-12-13T14:54:16.551Z,2.40
2018-12-13T14:56:45.287Z,2.40
2018-12-13T14:59:13.941Z,2.40
2018-12-13T15:01:42.643Z,2.40
2018-12-13T15:04:11.313Z,2.30
2018-12-13T15:06:39.920Z,2.30
2018-12-13T15:09:08.603Z,2.20
2018-12-13T15:11:37.198Z,2.30
2018-12-13T15:14:05.698Z,2.20
2018-12-13T15:16:34.223Z,2.20
2018-12-13T15:19:02.830Z,2.20
2018-12-13T15:21:31.555Z,2.10
2018-12-13T15:24:00.236Z,2.10
2018-12-13T15:26:28.980Z,2.10
2018-12-13T15:28:59.702Z,2.10
2018-12-13T15:31:29.226Z,2.00
2018-12-13T15:33:57.804Z,2.00
2018-12-13T15:36:26.632Z,2.00
2018-12-13T15:38:55.194Z,1.90
2018-12-13T15:41:23.718Z,1.90
2018-12-13T15:43:52.456Z,1.80
2018-12-13T15:50:14.762Z,1.80
2018-12-13T15:53:14.332Z,1.70
2018-12-13T15:55:45.934Z,1.70
2018-12-13T15:58:16.306Z,1.70
2018-12-13T16:00:46.426Z,1.70
2018-12-13T16:05:32.338Z,1.70
2018-12-13T16:08:00.930Z,1.70
2018-12-13T16:10:29.480Z,1.60
2018-12-13T16:12:57.979Z,1.60
2018-12-13T16:15:26.666Z,1.60
2018-12-13T16:17:55.168Z,1.50
2018-12-13T16:20:23.947Z,1.50
2018-12-13T16:22:54.273Z,1.50
2018-12-13T16:25:22.802Z,1.50
2018-12-13T16:27:51.502Z,1.50
2018-12-13T16:30:20.356Z,1.50
2018-12-13T16:32:48.850Z,1.40
2018-12-13T16:35:17.568Z,1.40
2018-12-13T16:37:46.059Z,1.40
2018-12-13T16:40:14.552Z,1.40
2018-12-13T16:42:43.202Z,1.40
2018-12-13T16:45:11.790Z,1.40
2018-12-13T16:47:40.415Z,1.40
2018-12-13T16:50:09.100Z,1.30
2018-12-13T16:52:37.693Z,1.30
2018-12-13T16:55:06.319Z,1.30
2018-12-13T16:57:34.895Z,1.20
2018-12-13T17:00:03.860Z,1.20
2018-12-13T17:02:32.431Z,1.20
2018-12-13T17:05:03.559Z,1.20
2018-12-13T17:07:32.368Z,1.20
2018-12-13T17:10:01.226Z,1.20
2018-12-13T17:12:29.906Z,1.20
2018-12-13T17:14:58.963Z,1.30
2018-12-13T17:17:27.595Z,1.30
2018-12-13T17:19:56.102Z,1.20
2018-12-13T17:22:24.683Z,1.20
2018-12-13T17:24:53.364Z,1.20
2018-12-13T17:27:21.994Z,1.20
2018-12-13T17:29:50.545Z,1.10
2018-12-13T17:32:19.133Z,1.10
2018-12-13T17:34:47.920Z,1.10
2018-12-13T17:37:16.616Z,1.10
2018-12-13T17:39:45.315Z,1.00
2018-12-13T17:42:14.061Z,1.00
2018-12-13T17:44:42.779Z,1.00
2018-12-13T17:47:11.301Z,1.00
2018-12-13T17:49:39.962Z,0.90
2018-12-13T17:52:08.737Z,0.90
2018-12-13T17:54:37.240Z,0.90
2018-12-13T17:57:05.867Z,0.90
2018-12-13T17:59:34.484Z,0.90
2018-12-13T18:02:03.295Z,0.80
2018-12-13T18:04:31.887Z,0.80
2018-12-13T18:07:00.440Z,0.80
2018-12-13T18:09:29.001Z,0.80
2018-12-13T18:11:57.529Z,0.70
2018-12-13T18:14:26.190Z,0.70
2018-12-13T18:16:54.724Z,0.70
2018-12-13T18:19:23.341Z,0.70
2018-12-13T18:21:51.929Z,0.70
2018-12-13T18:24:20.603Z,0.70
2018-12-13T18:26:49.416Z,0.70
2018-12-13T18:29:18.306Z,0.60
2018-12-13T18:31:47.000Z,0.70
2018-12-13T18:34:15.503Z,0.70
2018-12-13T18:36:44.098Z,0.60
2018-12-13T18:39:12.657Z,0.60
2018-12-13T18:41:41.586Z,0.60
2018-12-13T18:44:10.122Z,0.60
2018-12-13T18:46:38.657Z,0.60
2018-12-13T18:49:07.282Z,0.50
2018-12-13T18:51:36.077Z,0.50
2018-12-13T18:54:04.762Z,0.50
2018-12-13T18:56:33.290Z,0.60
2018-12-13T18:59:01.886Z,0.60
2018-12-13T19:01:30.852Z,0.60
2018-12-13T19:03:59.398Z,0.50
2018-12-13T19:06:27.975Z,0.50
2018-12-13T19:08:56.488Z,0.50
2018-12-13T19:11:25.162Z,0.50
2018-12-13T19:13:53.870Z,0.40
2018-12-13T19:16:22.736Z,0.40
2018-12-13T19:18:51.863Z,0.40
2018-12-13T19:21:20.698Z,0.40
2018-12-13T19:23:49.206Z,0.30
2018-12-13T19:26:18.098Z,0.30
2018-12-13T19:28:46.647Z,0.30
2018-12-13T19:31:15.314Z,0.20
2018-12-13T19:33:43.820Z,0.20
2018-12-13T19:36:12.439Z,0.20
2018-12-13T19:38:41.050Z,0.20
2018-12-13T19:41:09.801Z,0.20
2018-12-13T19:43:38.497Z,0.20
2018-12-13T19:46:07.191Z,0.20
2018-12-13T19:48:35.729Z,0.20
2018-12-13T19:51:04.686Z,0.10
2018-12-13T19:53:33.416Z,0.10
2018-12-13T19:56:01.947Z,0.10
2018-12-13T19:58:30.517Z,0.10
2018-12-13T20:00:59.013Z,0.10
2018-12-13T20:03:27.680Z,0.10
2018-12-13T20:05:56.162Z,0.10
2018-12-13T20:08:24.691Z,0.00
2018-12-13T20:10:54.829Z,0.00
2018-12-13T20:13:23.843Z,0.00
2018-12-13T20:15:52.533Z,0.00
2018-12-13T20:18:21.042Z,0.00
2018-12-13T20:20:49.585Z,0.00
2018-12-13T20:23:18.186Z,0.00
2018-12-13T20:25:46.822Z,0.00
2018-12-13T20:28:15.678Z,0.00
2018-12-13T20:30:44.273Z,-0.10
2018-12-13T20:33:12.861Z,-0.10
2018-12-13T20:35:41.423Z,0.00
2018-12-13T20:38:10.011Z,-0.10
2018-12-13T20:40:38.678Z,-0.10
2018-12-13T20:43:07.198Z,-0.10
2018-12-13T20:45:35.734Z,-0.20
2018-12-13T20:48:04.551Z,-0.20
2018-12-13T20:50:33.201Z,-0.20
2018-12-13T20:53:01.829Z,-0.20
2018-12-13T20:55:30.511Z,-0.20
2018-12-13T20:57:59.042Z,-0.20
2018-12-13T21:00:27.782Z,-0.20
2018-12-13T21:02:56.344Z,-0.20
2018-12-13T21:05:24.958Z,-0.20
2018-12-13T21:07:57.726Z,-0.30
2018-12-13T21:10:26.418Z,-0.30
2018-12-13T21:12:56.246Z,-0.30
2018-12-13T21:15:25.228Z,-0.30
2018-12-13T21:17:53.813Z,-0.30
2018-12-13T21:20:22.358Z,-0.30
2018-12-13T21:22:50.875Z,-0.30
2018-12-13T21:25:19.558Z,-0.30
2018-12-13T21:27:48.059Z,-0.30
2018-12-13T21:30:16.636Z,-0.30
2018-12-13T21:32:45.232Z,-0.30
2018-12-13T21:35:13.799Z,-0.40
2018-12-13T21:37:42.585Z,-0.40
2018-12-13T21:40:11.141Z,-0.40
2018-12-13T21:42:39.654Z,-0.40
2018-12-13T21:45:08.592Z,-0.40
2018-12-13T21:47:37.107Z,-0.40
2018-12-13T21:50:06.438Z,-0.50
2018-12-13T21:52:36.786Z,-0.50
2018-12-13T21:55:05.798Z,-0.60
2018-12-13T21:57:35.198Z,-0.50
2018-12-13T22:00:04.002Z,-0.60
2018-12-13T22:02:32.596Z,-0.60
2018-12-13T22:05:01.147Z,-0.60
2018-12-13T22:07:29.693Z,-0.60
2018-12-13T22:09:58.382Z,-0.60
2018-12-13T22:12:26.975Z,-0.60
2018-12-13T22:14:55.722Z,-0.60
2018-12-13T22:17:24.305Z,-0.60
2018-12-13T22:19:52.890Z,-0.70
2018-12-13T22:22:21.946Z,-0.70
2018-12-13T22:24:50.750Z,-0.60
2018-12-13T22:27:21.067Z,-0.70
2018-12-13T22:29:49.876Z,-0.70
2018-12-13T22:32:18.510Z,-0.70
2018-12-13T22:34:47.302Z,-0.80
2018-12-13T22:37:16.114Z,-0.70
2018-12-13T22:39:44.643Z,-0.80
2018-12-13T22:42:13.274Z,-0.80
2018-12-13T22:44:41.903Z,-0.80
2018-12-13T22:47:10.531Z,-0.80
2018-12-13T22:49:39.212Z,-0.80
2018-12-13T22:52:07.739Z,-0.90
2018-12-13T22:54:36.489Z,-0.90
2018-12-13T22:57:05.211Z,-1.00
2018-12-13T22:59:33.891Z,-1.00
2018-12-13T23:02:02.653Z,-1.00
2018-12-13T23:04:31.235Z,-1.00
2018-12-13T23:06:59.821Z,-0.90
2018-12-13T23:09:28.438Z,-1.00
2018-12-13T23:11:57.341Z,-0.90
2018-12-13T23:14:26.211Z,-0.90
2018-12-13T23:16:54.773Z,-1.00
2018-12-13T23:19:23.471Z,-0.90
2018-12-13T23:21:52.066Z,-0.90
2018-12-13T23:24:20.725Z,-0.90
2018-12-13T23:26:49.198Z,-1.00
2018-12-13T23:29:17.907Z,-1.00
2018-12-13T23:31:46.409Z,-1.00
2018-12-13T23:34:14.948Z,-1.00
2018-12-13T23:36:43.596Z,-1.00
2018-12-13T23:39:12.102Z,-1.00
2018-12-13T23:41:40.712Z,-1.00
2018-12-13T23:44:09.301Z,-1.00
2018-12-13T23:46:37.828Z,-1.00
2018-12-13T23:49:06.460Z,-1.00
2018-12-13T23:51:35.098Z,-1.00
2018-12-13T23:54:03.596Z,-1.10
2018-12-13T23:56:32.324Z,-1.10
2018-12-13T23:59:00.962Z,-1.10
